createdAt,value
2018-08-19T00:00:46.456Z,81.82
2018-08-19T00:01:50.847Z,81.82
2018-08-19T00:02:56.362Z,81.82
2018-08-19T00:04:02.892Z,81.82
2018-08-19T00:05:07.391Z,81.72
2018-08-19T00:06:13.957Z,81.63
2018-08-19T00:07:18.450Z,82.01
2018-08-19T00:08:23.978Z,81.72
2018-08-19T00:09:30.466Z,82.01
2018-08-19T00:10:34.999Z,82.01
2018-08-19T00:11:41.493Z,82.10
2018-08-19T00:12:46.022Z,81.92
2018-08-19T00:13:51.519Z,82.20
2018-08-19T00:14:58.041Z,82.10
2018-08-19T00:16:02.580Z,82.01
2018-08-19T00:17:09.104Z,81.92
2018-08-19T00:18:13.600Z,82.10
2018-08-19T00:19:19.082Z,82.01
2018-08-19T00:20:25.607Z,81.92
2018-08-19T00:21:30.137Z,82.01
2018-08-19T00:22:36.667Z,82.01
2018-08-19T00:23:41.729Z,81.72
2018-08-19T00:24:46.680Z,82.01
2018-08-19T00:25:53.199Z,82.59
2018-08-19T00:26:57.724Z,82.40
2018-08-19T00:28:04.244Z,82.87
2018-08-19T00:29:08.756Z,82.30
2018-08-19T00:30:14.243Z,82.49
2018-08-19T00:31:20.778Z,82.84
2018-08-19T00:32:25.291Z,82.84
2018-08-19T00:33:31.824Z,83.03
2018-08-19T00:34:36.319Z,82.84
2018-08-19T00:35:41.812Z,83.03
2018-08-19T00:36:48.367Z,83.03
2018-08-19T00:37:52.889Z,82.64
2018-08-19T00:38:59.393Z,82.93
2018-08-19T00:40:03.911Z,83.31
2018-08-19T00:41:09.428Z,83.03
2018-08-19T00:42:15.943Z,83.31
2018-08-19T00:43:20.450Z,83.41
2018-08-19T00:44:26.996Z,83.03
2018-08-19T00:45:31.481Z,83.51
2018-08-19T00:46:36.971Z,83.41
2018-08-19T00:47:43.509Z,83.41
2018-08-19T00:48:48.008Z,83.51
2018-08-19T00:49:54.565Z,83.51
2018-08-19T00:50:59.040Z,83.41
2018-08-19T00:52:04.565Z,83.60
2018-08-19T00:53:11.104Z,83.51
2018-08-19T00:54:15.626Z,83.51
2018-08-19T00:55:22.095Z,83.51
2018-08-19T00:56:26.620Z,83.41
2018-08-19T00:57:32.145Z,83.60
2018-08-19T00:58:38.657Z,83.98
2018-08-19T00:59:43.162Z,83.51
2018-08-19T01:00:49.696Z,83.22
2018-08-19T01:01:54.230Z,82.93
2018-08-19T01:02:59.714Z,82.74
2018-08-19T01:04:06.228Z,82.07
2018-08-19T01:05:10.745Z,82.35
2018-08-19T01:06:17.256Z,82.16
2018-08-19T01:07:21.783Z,81.68
2018-08-19T01:08:27.284Z,81.97
2018-08-19T01:09:33.818Z,82.07
2018-08-19T01:10:38.329Z,81.87
2018-08-19T01:11:44.848Z,82.07
2018-08-19T01:12:49.341Z,82.54
2018-08-19T01:13:54.889Z,83.03
2018-08-19T01:15:01.380Z,82.16
2018-08-19T01:16:05.910Z,83.03
2018-08-19T01:17:12.421Z,83.03
2018-08-19T01:18:16.920Z,83.31
2018-08-19T01:19:22.460Z,83.12
2018-08-19T01:20:28.962Z,82.79
2018-08-19T01:21:33.475Z,82.74
2018-08-19T01:22:39.994Z,82.93
2018-08-19T01:23:44.517Z,83.51
2018-08-19T01:24:50.026Z,83.41
2018-08-19T01:25:56.557Z,83.51
2018-08-19T01:27:01.064Z,83.70
2018-08-19T01:28:07.603Z,83.80
2018-08-19T01:29:12.064Z,83.47
2018-08-19T01:30:17.593Z,83.89
2018-08-19T01:31:24.132Z,83.89
2018-08-19T01:32:28.629Z,84.27
2018-08-19T01:33:35.173Z,84.04
2018-08-19T01:34:39.672Z,83.85
2018-08-19T01:35:45.188Z,84.23
2018-08-19T01:36:51.692Z,84.27
2018-08-19T01:37:56.209Z,84.04
2018-08-19T01:39:02.715Z,84.33
2018-08-19T01:40:07.228Z,84.33
2018-08-19T01:41:12.733Z,84.42
2018-08-19T01:42:19.268Z,84.23
2018-08-19T01:43:23.768Z,84.42
2018-08-19T01:44:30.314Z,84.23
2018-08-19T01:45:34.816Z,83.94
2018-08-19T01:46:40.340Z,84.04
2018-08-19T01:47:46.863Z,84.04
2018-08-19T01:48:51.341Z,83.94
2018-08-19T01:49:57.892Z,84.14
2018-08-19T01:51:02.375Z,84.14
2018-08-19T01:52:07.955Z,84.14
2018-08-19T01:53:14.415Z,84.04
2018-08-19T01:54:18.930Z,84.14
2018-08-19T01:55:25.446Z,84.42
2018-08-19T01:56:29.951Z,84.42
2018-08-19T01:57:35.467Z,84.23
2018-08-19T01:58:42.005Z,84.71
2018-08-19T01:59:46.514Z,84.61
2018-08-19T02:00:53.023Z,84.42
2018-08-19T02:01:57.547Z,84.81
2018-08-19T02:03:03.067Z,84.14
2018-08-19T02:04:09.574Z,84.23
2018-08-19T02:05:14.081Z,84.52
2018-08-19T02:06:20.609Z,84.71
2018-08-19T02:07:25.104Z,84.71
2018-08-19T02:08:30.631Z,84.91
2018-08-19T02:09:37.145Z,84.81
2018-08-19T02:10:41.654Z,84.61
2018-08-19T02:11:48.182Z,84.61
2018-08-19T02:12:52.682Z,84.61
2018-08-19T02:13:58.226Z,84.61
2018-08-19T02:15:04.716Z,84.61
2018-08-19T02:16:09.224Z,84.61
2018-08-19T02:17:15.755Z,84.42
2018-08-19T02:18:20.258Z,84.42
2018-08-19T02:19:25.784Z,84.52
2018-08-19T02:20:32.275Z,84.42
2018-08-19T02:21:36.809Z,84.04
2018-08-19T02:22:43.326Z,85.00
2018-08-19T02:23:47.836Z,84.42
2018-08-19T02:24:53.352Z,84.23
2018-08-19T02:25:59.872Z,84.48
2018-08-19T02:27:04.399Z,84.33
2018-08-19T02:28:10.906Z,84.61
2018-08-19T02:29:15.397Z,84.52
2018-08-19T02:30:20.920Z,84.77
2018-08-19T02:31:27.464Z,84.48
2018-08-19T02:32:31.951Z,84.86
2018-08-19T02:33:38.487Z,84.86
2018-08-19T02:34:42.984Z,84.71
2018-08-19T02:35:48.490Z,84.86
2018-08-19T02:36:55.018Z,85.25
2018-08-19T02:37:59.526Z,84.81
2018-08-19T02:39:06.075Z,85.05
2018-08-19T02:40:10.562Z,84.86
2018-08-19T02:41:16.090Z,84.77
2018-08-19T02:42:22.610Z,84.95
2018-08-19T02:43:27.104Z,85.15
2018-08-19T02:44:33.621Z,85.25
2018-08-19T02:45:38.155Z,85.63
2018-08-19T02:46:43.632Z,85.53
2018-08-19T02:47:50.192Z,85.44
2018-08-19T02:48:54.681Z,85.25
2018-08-19T02:50:01.210Z,85.63
2018-08-19T02:51:05.715Z,85.53
2018-08-19T02:52:11.232Z,85.82
2018-08-19T02:53:17.750Z,85.44
2018-08-19T02:54:22.265Z,85.34
2018-08-19T02:55:28.774Z,85.34
2018-08-19T02:56:33.284Z,85.63
2018-08-19T02:57:38.786Z,85.92
2018-08-19T02:58:45.308Z,85.82
2018-08-19T02:59:49.829Z,85.34
2018-08-19T03:00:56.333Z,85.53
2018-08-19T03:02:00.865Z,86.11
2018-08-19T03:03:06.347Z,85.92
2018-08-19T03:04:12.895Z,85.44
2018-08-19T03:05:17.397Z,85.63
2018-08-19T03:06:23.918Z,85.92
2018-08-19T03:07:28.433Z,85.92
2018-08-19T03:08:33.937Z,86.21
2018-08-19T03:09:40.481Z,85.82
2018-08-19T03:10:44.997Z,86.40
2018-08-19T03:11:51.496Z,86.40
2018-08-19T03:12:56.014Z,86.40
2018-08-19T03:14:01.505Z,86.58
2018-08-19T03:15:08.126Z,86.40
2018-08-19T03:16:12.559Z,85.82
2018-08-19T03:17:19.078Z,85.63
2018-08-19T03:18:23.569Z,85.82
2018-08-19T03:19:29.080Z,85.44
2018-08-19T03:20:35.618Z,85.39
2018-08-19T03:21:40.118Z,85.92
2018-08-19T03:22:46.849Z,85.92
2018-08-19T03:23:51.158Z,86.21
2018-08-19T03:24:56.693Z,86.07
2018-08-19T03:26:03.182Z,85.88
2018-08-19T03:27:07.686Z,86.07
2018-08-19T03:28:14.200Z,85.88
2018-08-19T03:29:18.763Z,85.78
2018-08-19T03:30:24.225Z,85.68
2018-08-19T03:31:30.776Z,85.88
2018-08-19T03:32:35.250Z,85.78
2018-08-19T03:33:41.805Z,85.68
2018-08-19T03:34:46.337Z,85.97
2018-08-19T03:35:51.798Z,85.88
2018-08-19T03:36:58.341Z,85.97
2018-08-19T03:38:02.872Z,86.35
2018-08-19T03:39:09.365Z,86.45
2018-08-19T03:40:13.875Z,86.35
2018-08-19T03:41:19.394Z,86.16
2018-08-19T03:42:25.917Z,86.93
2018-08-19T03:43:30.418Z,86.54
2018-08-19T03:44:36.920Z,86.93
2018-08-19T03:45:41.419Z,86.93
2018-08-19T03:46:46.949Z,87.12
2018-08-19T03:47:53.463Z,87.02
2018-08-19T03:48:57.991Z,87.02
2018-08-19T03:50:04.506Z,86.64
2018-08-19T03:51:09.005Z,86.74
2018-08-19T03:52:14.512Z,87.41
2018-08-19T03:53:21.072Z,87.41
2018-08-19T03:54:25.567Z,86.64
2018-08-19T03:55:32.085Z,87.31
2018-08-19T03:56:36.587Z,87.50
2018-08-19T03:57:42.102Z,87.70
2018-08-19T03:58:48.635Z,87.50
2018-08-19T03:59:53.120Z,86.93
2018-08-19T04:00:59.672Z,86.54
2018-08-19T04:02:04.160Z,87.02
2018-08-19T04:03:09.676Z,87.12
2018-08-19T04:04:16.201Z,87.50
2018-08-19T04:05:20.702Z,87.70
2018-08-19T04:06:27.224Z,87.70
2018-08-19T04:07:31.724Z,87.60
2018-08-19T04:08:37.258Z,87.41
2018-08-19T04:09:43.786Z,87.50
2018-08-19T04:10:48.245Z,87.50
2018-08-19T04:11:54.800Z,87.50
2018-08-19T04:12:59.296Z,87.60
2018-08-19T04:14:04.820Z,86.93
2018-08-19T04:15:11.338Z,87.12
2018-08-19T04:16:15.846Z,86.16
2018-08-19T04:17:22.378Z,86.74
2018-08-19T04:18:26.861Z,86.93
2018-08-19T04:19:32.379Z,86.74
2018-08-19T04:20:38.916Z,86.64
2018-08-19T04:21:43.399Z,86.54
2018-08-19T04:22:49.958Z,87.50
2018-08-19T04:23:54.443Z,87.31
2018-08-19T04:24:59.943Z,87.79
2018-08-19T04:26:06.484Z,87.12
2018-08-19T04:27:10.991Z,87.12
2018-08-19T04:28:17.547Z,87.41
2018-08-19T04:29:22.027Z,87.60
2018-08-19T04:30:27.518Z,87.79
2018-08-19T04:31:34.068Z,87.60
2018-08-19T04:32:38.548Z,87.50
2018-08-19T04:33:45.100Z,87.41
2018-08-19T04:34:49.598Z,87.50
2018-08-19T04:35:55.096Z,87.50
2018-08-19T04:37:01.626Z,87.21
2018-08-19T04:38:06.119Z,86.74
2018-08-19T04:39:12.658Z,86.64
2018-08-19T04:40:17.167Z,86.93
2018-08-19T04:41:22.692Z,86.83
2018-08-19T04:42:29.188Z,87.02
2018-08-19T04:43:33.691Z,87.60
2018-08-19T04:44:40.233Z,87.50
2018-08-19T04:45:44.747Z,87.79
2018-08-19T04:46:50.245Z,87.41
2018-08-19T04:47:56.787Z,87.70
2018-08-19T04:49:01.284Z,87.79
2018-08-19T04:50:07.791Z,87.70
2018-08-19T04:51:12.308Z,87.98
2018-08-19T04:52:17.821Z,88.37
2018-08-19T04:53:24.351Z,87.98
2018-08-19T04:54:28.849Z,88.17
2018-08-19T04:55:35.379Z,88.46
2018-08-19T04:56:39.881Z,88.27
2018-08-19T04:57:45.395Z,88.17
2018-08-19T04:58:51.924Z,88.37
2018-08-19T04:59:56.423Z,88.37
2018-08-19T05:01:02.942Z,88.37
2018-08-19T05:02:07.514Z,88.37
2018-08-19T05:03:12.968Z,88.37
2018-08-19T05:04:19.507Z,88.27
2018-08-19T05:05:23.998Z,88.17
2018-08-19T05:06:30.519Z,88.46
2018-08-19T05:07:35.057Z,88.46
2018-08-19T05:08:40.552Z,88.37
2018-08-19T05:09:47.063Z,88.46
2018-08-19T05:10:51.561Z,88.46
2018-08-19T05:11:58.083Z,87.60
2018-08-19T05:13:02.596Z,88.46
2018-08-19T05:14:08.116Z,88.46
2018-08-19T05:15:14.659Z,88.41
2018-08-19T05:16:19.130Z,87.98
2018-08-19T05:17:25.658Z,88.17
2018-08-19T05:18:30.155Z,88.51
2018-08-19T05:19:35.696Z,88.51
2018-08-19T05:20:42.191Z,87.93
2018-08-19T05:21:46.736Z,88.51
2018-08-19T05:22:53.261Z,88.31
2018-08-19T05:23:57.749Z,88.41
2018-08-19T05:25:03.249Z,88.41
2018-08-19T05:26:09.784Z,88.51
2018-08-19T05:27:14.286Z,88.02
2018-08-19T05:28:20.838Z,88.51
2018-08-19T05:29:25.329Z,88.22
2018-08-19T05:30:30.840Z,88.02
2018-08-19T05:31:37.429Z,88.02
2018-08-19T05:32:41.842Z,87.64
2018-08-19T05:33:48.387Z,87.84
2018-08-19T05:34:52.890Z,87.93
2018-08-19T05:35:58.422Z,87.98
2018-08-19T05:37:04.914Z,87.84
2018-08-19T05:38:09.554Z,87.93
2018-08-19T05:39:15.968Z,87.93
2018-08-19T05:40:20.458Z,87.40
2018-08-19T05:41:25.979Z,87.30
2018-08-19T05:42:32.492Z,87.49
2018-08-19T05:43:37.006Z,87.59
2018-08-19T05:44:43.533Z,87.49
2018-08-19T05:45:48.027Z,87.68
2018-08-19T05:46:53.562Z,87.59
2018-08-19T05:48:00.069Z,87.59
2018-08-19T05:49:04.612Z,87.59
2018-08-19T05:50:11.103Z,87.49
2018-08-19T05:51:15.611Z,87.11
2018-08-19T05:52:21.123Z,87.68
2018-08-19T05:53:27.622Z,87.78
2018-08-19T05:54:32.139Z,87.88
2018-08-19T05:55:38.810Z,87.98
2018-08-19T05:56:43.895Z,87.78
2018-08-19T05:57:48.688Z,88.11
2018-08-19T05:58:55.223Z,88.11
2018-08-19T05:59:59.734Z,87.73
2018-08-19T06:01:06.293Z,87.73
2018-08-19T06:02:10.763Z,88.40
2018-08-19T06:03:16.287Z,88.31
2018-08-19T06:04:22.811Z,88.21
2018-08-19T06:05:27.307Z,87.35
2018-08-19T06:06:33.841Z,87.44
2018-08-19T06:07:38.388Z,87.63
2018-08-19T06:08:43.857Z,87.73
2018-08-19T06:09:50.369Z,87.44
2018-08-19T06:10:54.884Z,87.44
2018-08-19T06:12:01.417Z,87.58
2018-08-19T06:13:05.933Z,87.77
2018-08-19T06:14:11.446Z,87.68
2018-08-19T06:15:17.936Z,87.01
2018-08-19T06:16:22.446Z,86.81
2018-08-19T06:17:28.973Z,87.29
2018-08-19T06:18:33.457Z,87.19
2018-08-19T06:19:39.053Z,86.33
2018-08-19T06:20:45.518Z,86.52
2018-08-19T06:21:50.077Z,86.91
2018-08-19T06:22:56.546Z,86.24
2018-08-19T06:24:01.059Z,86.66
2018-08-19T06:25:06.576Z,86.38
2018-08-19T06:26:13.113Z,86.66
2018-08-19T06:27:17.601Z,86.47
2018-08-19T06:28:24.130Z,86.76
2018-08-19T06:29:28.635Z,86.47
2018-08-19T06:30:34.169Z,86.38
2018-08-19T06:31:40.686Z,85.89
2018-08-19T06:32:45.188Z,85.89
2018-08-19T06:33:51.726Z,85.80
2018-08-19T06:34:56.251Z,85.89
2018-08-19T06:36:01.744Z,85.99
2018-08-19T06:37:08.320Z,85.61
2018-08-19T06:38:12.780Z,85.71
2018-08-19T06:39:19.297Z,84.74
2018-08-19T06:40:23.821Z,84.88
2018-08-19T06:41:29.334Z,85.17
2018-08-19T06:42:35.834Z,84.01
2018-08-19T06:43:40.344Z,84.21
2018-08-19T06:44:46.873Z,84.30
2018-08-19T06:45:51.363Z,84.78
2018-08-19T06:46:56.896Z,83.92
2018-08-19T06:48:03.415Z,83.53
2018-08-19T06:49:07.904Z,83.25
2018-08-19T06:50:14.444Z,83.63
2018-08-19T06:51:19.048Z,83.25
2018-08-19T06:52:24.462Z,83.15
2018-08-19T06:53:30.992Z,82.96
2018-08-19T06:54:35.523Z,82.90
2018-08-19T06:55:42.046Z,83.06
2018-08-19T06:56:46.550Z,83.29
2018-08-19T06:57:52.092Z,83.86
2018-08-19T06:58:58.571Z,83.00
2018-08-19T07:00:03.091Z,83.39
2018-08-19T07:01:09.602Z,83.09
2018-08-19T07:02:14.107Z,82.04
2018-08-19T07:03:19.670Z,81.84
2018-08-19T07:04:26.152Z,81.75
2018-08-19T07:05:30.677Z,81.56
2018-08-19T07:06:37.203Z,81.46
2018-08-19T07:07:41.711Z,81.17
2018-08-19T07:08:47.204Z,81.07
2018-08-19T07:09:53.731Z,81.46
2018-08-19T07:10:58.242Z,81.27
2018-08-19T07:12:04.748Z,80.98
2018-08-19T07:13:09.290Z,81.70
2018-08-19T07:14:14.789Z,81.50
2018-08-19T07:15:21.349Z,80.25
2018-08-19T07:16:25.831Z,79.96
2018-08-19T07:17:32.335Z,79.67
2018-08-19T07:18:36.893Z,79.77
2018-08-19T07:19:42.363Z,79.38
2018-08-19T07:20:48.897Z,79.28
2018-08-19T07:21:53.419Z,79.38
2018-08-19T07:22:59.935Z,78.81
2018-08-19T07:24:04.437Z,79.00
2018-08-19T07:25:09.940Z,78.81
2018-08-19T07:26:16.485Z,78.90
2018-08-19T07:27:20.998Z,78.23
2018-08-19T07:28:27.497Z,78.17
2018-08-19T07:29:32.060Z,77.98
2018-08-19T07:30:37.550Z,76.63
2018-08-19T07:31:44.913Z,76.82
2018-08-19T07:32:48.594Z,76.92
2018-08-19T07:33:55.110Z,76.53
2018-08-19T07:34:59.606Z,75.86
2018-08-19T07:36:05.121Z,75.96
2018-08-19T07:37:11.727Z,75.67
2018-08-19T07:38:16.161Z,75.96
2018-08-19T07:39:22.687Z,76.63
2018-08-19T07:40:27.175Z,75.76
2018-08-19T07:41:32.713Z,75.99
2018-08-19T07:42:39.254Z,75.32
2018-08-19T07:43:43.799Z,76.09
2018-08-19T07:44:50.274Z,74.84
2018-08-19T07:45:54.793Z,75.61
2018-08-19T07:47:00.286Z,75.61
2018-08-19T07:48:06.820Z,75.13
2018-08-19T07:49:11.314Z,74.16
2018-08-19T07:50:17.828Z,73.49
2018-08-19T07:51:22.361Z,74.20
2018-08-19T07:52:27.866Z,74.07
2018-08-19T07:53:34.392Z,73.43
2018-08-19T07:54:38.912Z,73.05
2018-08-19T07:55:45.459Z,72.85
2018-08-19T07:56:49.922Z,73.33
2018-08-19T07:57:55.464Z,72.75
2018-08-19T07:59:02.012Z,72.47
2018-08-19T08:00:06.501Z,72.75
2018-08-19T08:01:13.048Z,72.27
2018-08-19T08:02:17.525Z,72.56
2018-08-19T08:03:23.055Z,72.75
2018-08-19T08:04:29.599Z,72.56
2018-08-19T08:05:34.068Z,72.47
2018-08-19T08:06:40.593Z,72.37
2018-08-19T08:07:45.096Z,71.22
2018-08-19T08:08:50.624Z,71.02
2018-08-19T08:09:57.170Z,72.18
2018-08-19T08:11:01.700Z,71.92
2018-08-19T08:12:08.190Z,71.92
2018-08-19T08:13:12.714Z,72.31
2018-08-19T08:14:18.218Z,71.34
2018-08-19T08:15:24.745Z,70.57
2018-08-19T08:16:29.231Z,71.15
2018-08-19T08:17:35.787Z,71.25
2018-08-19T08:18:40.316Z,71.44
2018-08-19T08:19:45.791Z,71.15
2018-08-19T08:20:52.358Z,70.67
2018-08-19T08:21:56.814Z,70.38
2018-08-19T08:23:03.370Z,69.90
2018-08-19T08:24:07.910Z,70.13
2018-08-19T08:25:13.394Z,70.32
2018-08-19T08:26:19.939Z,70.13
2018-08-19T08:27:24.403Z,70.13
2018-08-19T08:28:30.956Z,70.03
2018-08-19T08:29:35.513Z,69.64
2018-08-19T08:30:40.998Z,69.26
2018-08-19T08:31:47.562Z,68.68
2018-08-19T08:32:51.997Z,69.26
2018-08-19T08:33:58.538Z,68.19
2018-08-19T08:35:03.052Z,69.20
2018-08-19T08:36:08.571Z,69.45
2018-08-19T08:37:15.096Z,69.16
2018-08-19T08:38:19.589Z,69.00
2018-08-19T08:39:26.152Z,68.43
2018-08-19T08:40:30.691Z,68.71
2018-08-19T08:41:36.150Z,68.43
2018-08-19T08:42:42.679Z,68.71
2018-08-19T08:43:47.174Z,67.46
2018-08-19T08:44:53.740Z,66.78
2018-08-19T08:45:58.224Z,67.46
2018-08-19T08:47:03.737Z,67.36
2018-08-19T08:48:10.263Z,66.78
2018-08-19T08:49:14.772Z,66.97
2018-08-19T08:50:21.325Z,67.36
2018-08-19T08:51:25.803Z,67.27
2018-08-19T08:52:31.333Z,66.91
2018-08-19T08:53:37.862Z,67.07
2018-08-19T08:54:42.371Z,66.05
2018-08-19T08:55:48.899Z,67.49
2018-08-19T08:56:53.396Z,66.43
2018-08-19T08:57:58.906Z,67.01
2018-08-19T08:59:05.433Z,66.91
2018-08-19T09:00:09.939Z,66.43
2018-08-19T09:01:16.501Z,66.33
2018-08-19T09:02:20.989Z,65.95
2018-08-19T09:03:26.509Z,65.95
2018-08-19T09:04:33.075Z,65.95
2018-08-19T09:05:37.544Z,65.75
2018-08-19T09:06:44.066Z,66.24
2018-08-19T09:07:48.575Z,66.14
2018-08-19T09:08:54.095Z,65.85
2018-08-19T09:10:00.615Z,66.14
2018-08-19T09:11:05.131Z,65.56
2018-08-19T09:12:11.708Z,64.89
2018-08-19T09:13:16.176Z,65.56
2018-08-19T09:14:21.681Z,65.08
2018-08-19T09:15:28.214Z,64.79
2018-08-19T09:16:32.716Z,65.66
2018-08-19T09:17:39.310Z,64.98
2018-08-19T09:18:43.771Z,64.89
2018-08-19T09:19:49.274Z,65.08
2018-08-19T09:20:55.802Z,65.75
2018-08-19T09:22:00.317Z,65.75
2018-08-19T09:23:06.912Z,65.56
2018-08-19T09:24:11.340Z,65.66
2018-08-19T09:25:16.870Z,64.82
2018-08-19T09:26:23.415Z,65.01
2018-08-19T09:27:27.891Z,65.20
2018-08-19T09:28:34.442Z,65.40
2018-08-19T09:29:38.927Z,65.78
2018-08-19T09:30:44.464Z,64.63
2018-08-19T09:31:50.989Z,63.28
2018-08-19T09:32:56.249Z,63.76
2018-08-19T09:34:02.025Z,63.37
2018-08-19T09:35:06.521Z,64.14
2018-08-19T09:36:12.030Z,64.27
2018-08-19T09:37:18.596Z,63.66
2018-08-19T09:38:23.111Z,63.89
2018-08-19T09:39:29.600Z,64.27
2018-08-19T09:40:34.152Z,63.79
2018-08-19T09:41:39.642Z,63.31
2018-08-19T09:42:46.158Z,63.50
2018-08-19T09:43:50.686Z,63.11
2018-08-19T09:44:57.229Z,63.50
2018-08-19T09:46:01.754Z,64.50
2018-08-19T09:47:07.213Z,64.21
2018-08-19T09:48:13.779Z,63.73
2018-08-19T09:49:18.238Z,63.37
2018-08-19T09:50:24.835Z,63.08
2018-08-19T09:51:29.278Z,63.08
2018-08-19T09:52:34.805Z,62.98
2018-08-19T09:53:41.355Z,62.50
2018-08-19T09:54:45.871Z,61.53
2018-08-19T09:55:52.397Z,60.57
2018-08-19T09:56:56.894Z,59.79
2018-08-19T09:58:02.384Z,60.95
2018-08-19T09:59:08.954Z,61.43
2018-08-19T10:00:13.479Z,61.66
2018-08-19T10:01:19.966Z,60.88
2018-08-19T10:02:24.447Z,61.08
2018-08-19T10:03:30.018Z,60.21
2018-08-19T10:04:36.532Z,60.40
2018-08-19T10:05:41.042Z,60.98
2018-08-19T10:06:47.610Z,59.53
2018-08-19T10:07:52.105Z,60.17
2018-08-19T10:08:57.572Z,60.69
2018-08-19T10:10:04.148Z,60.30
2018-08-19T10:11:08.646Z,61.18
2018-08-19T10:12:15.170Z,60.88
2018-08-19T10:13:19.671Z,60.50
2018-08-19T10:14:25.194Z,59.91
2018-08-19T10:15:31.714Z,59.23
2018-08-19T10:16:36.210Z,59.82
2018-08-19T10:17:42.852Z,60.01
2018-08-19T10:18:47.293Z,59.72
2018-08-19T10:19:52.816Z,60.11
2018-08-19T10:20:59.327Z,59.91
2018-08-19T10:22:03.830Z,59.14
2018-08-19T10:23:10.356Z,60.78
2018-08-19T10:24:14.843Z,60.59
2018-08-19T10:25:20.372Z,59.91
2018-08-19T10:26:26.940Z,60.30
2018-08-19T10:27:31.384Z,60.21
2018-08-19T10:28:37.948Z,60.01
2018-08-19T10:29:42.427Z,59.91
2018-08-19T10:30:47.958Z,59.82
2018-08-19T10:31:54.494Z,59.33
2018-08-19T10:32:59.028Z,59.46
2018-08-19T10:34:05.552Z,60.40
2018-08-19T10:35:10.053Z,60.33
2018-08-19T10:36:15.569Z,59.84
2018-08-19T10:37:22.099Z,59.66
2018-08-19T10:38:26.664Z,59.36
2018-08-19T10:39:33.145Z,58.69
2018-08-19T10:40:37.672Z,59.94
2018-08-19T10:41:43.179Z,58.49
2018-08-19T10:42:49.698Z,59.27
2018-08-19T10:43:54.200Z,58.11
2018-08-19T10:45:00.732Z,58.23
2018-08-19T10:46:05.213Z,59.20
2018-08-19T10:47:10.746Z,59.39
2018-08-19T10:48:20.132Z,59.20
2018-08-19T10:49:21.792Z,59.59
2018-08-19T10:50:28.344Z,58.81
2018-08-19T10:51:32.840Z,58.14
2018-08-19T10:52:38.362Z,57.97
2018-08-19T10:53:44.894Z,57.97
2018-08-19T10:54:49.379Z,57.58
2018-08-19T10:55:55.948Z,56.51
2018-08-19T10:57:00.415Z,56.90
2018-08-19T10:58:05.961Z,55.16
2018-08-19T10:59:12.496Z,56.23
2018-08-19T11:00:16.992Z,56.13
2018-08-19T11:01:23.533Z,56.81
2018-08-19T11:02:28.049Z,56.23
2018-08-19T11:03:33.552Z,56.23
2018-08-19T11:04:40.076Z,56.51
2018-08-19T11:05:44.601Z,56.61
2018-08-19T11:06:51.149Z,55.83
2018-08-19T11:07:55.619Z,56.23
2018-08-19T11:09:01.164Z,56.23
2018-08-19T11:10:07.663Z,56.71
2018-08-19T11:11:12.168Z,55.93
2018-08-19T11:12:18.746Z,56.51
2018-08-19T11:13:23.289Z,56.03
2018-08-19T11:14:28.745Z,55.16
2018-08-19T11:15:35.282Z,56.64
2018-08-19T11:16:39.814Z,56.25
2018-08-19T11:17:46.323Z,55.28
2018-08-19T11:18:50.818Z,54.90
2018-08-19T11:19:56.339Z,55.38
2018-08-19T11:21:02.976Z,55.28
2018-08-19T11:22:07.365Z,56.15
2018-08-19T11:23:13.964Z,56.54
2018-08-19T11:24:18.443Z,55.87
2018-08-19T11:25:23.959Z,55.41
2018-08-19T11:26:30.552Z,54.72
2018-08-19T11:27:35.005Z,55.41
2018-08-19T11:28:41.510Z,55.50
2018-08-19T11:29:46.015Z,54.41
2018-08-19T11:30:51.538Z,54.92
2018-08-19T11:31:58.068Z,56.09
2018-08-19T11:33:02.560Z,54.72
2018-08-19T11:34:09.123Z,55.41
2018-08-19T11:35:13.672Z,55.21
2018-08-19T11:36:19.155Z,55.50
2018-08-19T11:37:25.675Z,55.43
2018-08-19T11:38:30.195Z,54.56
2018-08-19T11:39:36.705Z,53.49
2018-08-19T11:40:41.205Z,52.78
2018-08-19T11:41:46.754Z,53.30
2018-08-19T11:42:53.277Z,52.88
2018-08-19T11:43:57.791Z,53.08
2018-08-19T11:45:04.328Z,54.66
2018-08-19T11:46:08.845Z,53.88
2018-08-19T11:47:14.345Z,53.78
2018-08-19T11:48:20.873Z,55.33
2018-08-19T11:49:25.388Z,54.78
2018-08-19T11:50:31.900Z,52.94
2018-08-19T11:51:36.449Z,52.64
2018-08-19T11:52:41.970Z,53.03
2018-08-19T11:53:48.473Z,52.06
2018-08-19T11:54:52.991Z,51.84
2018-08-19T11:55:59.533Z,52.94
2018-08-19T11:57:04.045Z,54.10
2018-08-19T11:58:09.553Z,53.13
2018-08-19T11:59:16.057Z,51.97
2018-08-19T12:00:20.605Z,52.94
2018-08-19T12:01:27.117Z,53.03
2018-08-19T12:02:31.630Z,52.74
2018-08-19T12:03:37.184Z,53.22
2018-08-19T12:04:43.710Z,52.64
2018-08-19T12:05:48.186Z,53.25
2018-08-19T12:06:54.712Z,53.35
2018-08-19T12:07:59.257Z,52.96
2018-08-19T12:09:04.776Z,53.06
2018-08-19T12:10:11.293Z,53.45
2018-08-19T12:11:15.797Z,52.37
2018-08-19T12:12:22.324Z,52.37
2018-08-19T12:13:26.823Z,52.96
2018-08-19T12:14:32.385Z,51.50
2018-08-19T12:15:38.896Z,51.31
2018-08-19T12:16:43.423Z,50.92
2018-08-19T12:17:49.974Z,52.09
2018-08-19T12:18:54.447Z,52.09
2018-08-19T12:19:59.975Z,51.31
2018-08-19T12:21:06.515Z,51.21
2018-08-19T12:22:11.040Z,51.99
2018-08-19T12:23:17.548Z,51.40
2018-08-19T12:24:22.069Z,51.11
2018-08-19T12:25:27.618Z,50.43
2018-08-19T12:26:34.114Z,50.73
2018-08-19T12:27:38.735Z,51.01
2018-08-19T12:28:45.146Z,51.01
2018-08-19T12:29:49.675Z,51.01
2018-08-19T12:30:55.176Z,52.28
2018-08-19T12:32:01.688Z,50.82
2018-08-19T12:33:06.205Z,51.40
2018-08-19T12:34:12.780Z,50.24
2018-08-19T12:35:17.269Z,50.43
2018-08-19T12:36:22.776Z,49.66
2018-08-19T12:37:29.287Z,50.73
2018-08-19T12:38:33.807Z,50.73
2018-08-19T12:39:40.337Z,51.89
2018-08-19T12:40:44.867Z,51.72
2018-08-19T12:41:50.411Z,50.92
2018-08-19T12:42:57.761Z,50.92
2018-08-19T12:44:01.424Z,50.85
2018-08-19T12:45:07.987Z,50.24
2018-08-19T12:46:12.508Z,49.66
2018-08-19T12:47:18.012Z,49.56
2018-08-19T12:48:24.509Z,50.34
2018-08-19T12:49:29.031Z,50.14
2018-08-19T12:50:35.571Z,50.43
2018-08-19T12:51:40.080Z,50.34
2018-08-19T12:52:45.594Z,50.16
2018-08-19T12:53:52.115Z,50.43
2018-08-19T12:54:56.648Z,50.63
2018-08-19T12:56:03.169Z,50.82
2018-08-19T12:57:07.662Z,50.75
2018-08-19T12:58:13.185Z,50.56
2018-08-19T12:59:19.725Z,50.36
2018-08-19T13:00:24.227Z,49.10
2018-08-19T13:01:30.776Z,49.49
2018-08-19T13:02:35.317Z,50.16
2018-08-19T13:03:40.807Z,50.04
2018-08-19T13:04:47.326Z,50.26
2018-08-19T13:05:51.872Z,50.16
2018-08-19T13:06:58.396Z,49.49
2018-08-19T13:08:02.935Z,50.43
2018-08-19T13:09:08.417Z,49.00
2018-08-19T13:10:14.946Z,49.58
2018-08-19T13:11:19.433Z,50.14
2018-08-19T13:12:26.017Z,50.24
2018-08-19T13:13:30.482Z,50.16
2018-08-19T13:14:35.988Z,49.58
2018-08-19T13:15:42.532Z,49.00
2018-08-19T13:16:47.045Z,48.97
2018-08-19T13:17:53.593Z,49.27
2018-08-19T13:18:58.137Z,50.34
2018-08-19T13:20:03.611Z,50.14
2018-08-19T13:21:10.182Z,50.73
2018-08-19T13:22:14.671Z,50.43
2018-08-19T13:23:21.245Z,49.46
2018-08-19T13:24:25.707Z,50.43
2018-08-19T13:25:31.222Z,50.63
2018-08-19T13:26:37.745Z,50.53
2018-08-19T13:27:42.252Z,50.24
2018-08-19T13:28:48.803Z,49.46
2018-08-19T13:29:53.338Z,49.27
2018-08-19T13:30:58.824Z,50.53
2018-08-19T13:32:05.388Z,50.43
2018-08-19T13:33:09.859Z,50.04
2018-08-19T13:34:16.442Z,50.04
2018-08-19T13:35:20.913Z,49.27
2018-08-19T13:36:26.442Z,50.43
2018-08-19T13:37:32.937Z,49.17
2018-08-19T13:38:37.439Z,47.52
2018-08-19T13:39:44.022Z,49.29
2018-08-19T13:40:48.515Z,49.29
2018-08-19T13:41:54.017Z,49.00
2018-08-19T13:43:00.565Z,49.68
2018-08-19T13:44:05.083Z,49.10
2018-08-19T13:45:11.627Z,48.22
2018-08-19T13:46:16.127Z,48.80
2018-08-19T13:47:21.704Z,48.13
2018-08-19T13:48:28.193Z,47.42
2018-08-19T13:49:32.697Z,47.81
2018-08-19T13:50:39.216Z,47.64
2018-08-19T13:51:43.718Z,48.97
2018-08-19T13:52:49.270Z,49.27
2018-08-19T13:53:55.753Z,48.00
2018-08-19T13:55:00.280Z,48.20
2018-08-19T13:56:06.838Z,48.61
2018-08-19T13:57:11.369Z,47.91
2018-08-19T13:58:16.854Z,48.49
2018-08-19T13:59:23.375Z,48.88
2018-08-19T14:00:27.880Z,49.07
2018-08-19T14:01:34.436Z,49.37
2018-08-19T14:02:38.918Z,49.17
2018-08-19T14:03:44.451Z,48.10